sensor_id;sensor_type;location;lat;lon;timestamp;temperature;humidity
68109;SHT30;54893;49.864;19.084;2022-12-18T00:00:40;-5.50;96.31
68109;SHT30;54893;49.864;19.084;2022-12-18T00:05:48;-5.55;96.34
68109;SHT30;54893;49.864;19.084;2022-12-18T00:10:49;-5.54;96.38
68109;SHT30;54893;49.864;19.084;2022-12-18T00:15:49;-5.59;96.19
68109;SHT30;54893;49.864;19.084;2022-12-18T00:20:49;-5.62;96.43
68109;SHT30;54893;49.864;19.084;2022-12-18T00:25:50;-5.56;96.53
68109;SHT30;54893;49.864;19.084;2022-12-18T00:30:50;-5.55;96.49
68109;SHT30;54893;49.864;19.084;2022-12-18T00:35:51;-5.55;96.22
68109;SHT30;54893;49.864;19.084;2022-12-18T00:40:51;-5.61;96.30
68109;SHT30;54893;49.864;19.084;2022-12-18T00:45:52;-5.58;96.12
68109;SHT30;54893;49.864;19.084;2022-12-18T00:50:52;-5.56;96.02
68109;SHT30;54893;49.864;19.084;2022-12-18T00:55:53;-5.58;95.93
68109;SHT30;54893;49.864;19.084;2022-12-18T01:00:53;-5.59;96.05
68109;SHT30;54893;49.864;19.084;2022-12-18T01:05:53;-5.64;96.15
68109;SHT30;54893;49.864;19.084;2022-12-18T01:10:53;-5.58;95.90
68109;SHT30;54893;49.864;19.084;2022-12-18T01:15:54;-5.59;95.80
68109;SHT30;54893;49.864;19.084;2022-12-18T01:20:54;-5.58;95.89
68109;SHT30;54893;49.864;19.084;2022-12-18T01:25:54;-5.68;95.98
68109;SHT30;54893;49.864;19.084;2022-12-18T01:30:55;-5.58;96.15
68109;SHT30;54893;49.864;19.084;2022-12-18T01:35:55;-5.62;96.14
68109;SHT30;54893;49.864;19.084;2022-12-18T01:40:59;-5.66;96.29
68109;SHT30;54893;49.864;19.084;2022-12-18T01:45:59;-5.62;96.41
68109;SHT30;54893;49.864;19.084;2022-12-18T01:51:00;-5.64;96.18
68109;SHT30;54893;49.864;19.084;2022-12-18T01:56:01;-5.66;96.29
68109;SHT30;54893;49.864;19.084;2022-12-18T02:01:01;-5.65;96.36
68109;SHT30;54893;49.864;19.084;2022-12-18T02:06:31;-5.65;96.29
68109;SHT30;54893;49.864;19.084;2022-12-18T02:11:39;-5.64;96.27
68109;SHT30;54893;49.864;19.084;2022-12-18T02:16:55;-5.62;95.89
68109;SHT30;54893;49.864;19.084;2022-12-18T02:27:19;-5.71;96.09
68109;SHT30;54893;49.864;19.084;2022-12-18T02:32:26;-5.75;96.18
68109;SHT30;54893;49.864;19.084;2022-12-18T02:37:27;-5.71;96.32
68109;SHT30;54893;49.864;19.084;2022-12-18T02:42:29;-5.74;96.21
68109;SHT30;54893;49.864;19.084;2022-12-18T02:47:33;-5.75;96.30
68109;SHT30;54893;49.864;19.084;2022-12-18T02:59:04;-5.74;96.13
68109;SHT30;54893;49.864;19.084;2022-12-18T03:03:38;-5.71;96.11
68109;SHT30;54893;49.864;19.084;2022-12-18T03:08:43;-5.68;95.94
68109;SHT30;54893;49.864;19.084;2022-12-18T03:13:49;-5.72;95.94
68109;SHT30;54893;49.864;19.084;2022-12-18T03:19:07;-5.71;96.06
68109;SHT30;54893;49.864;19.084;2022-12-18T03:24:09;-5.75;96.10
68109;SHT30;54893;49.864;19.084;2022-12-18T03:29:18;-5.71;96.28
68109;SHT30;54893;49.864;19.084;2022-12-18T03:34:28;-5.65;96.08
68109;SHT30;54893;49.864;19.084;2022-12-18T03:39:29;-5.69;95.62
68109;SHT30;54893;49.864;19.084;2022-12-18T03:55:08;-5.68;96.21
68109;SHT30;54893;49.864;19.084;2022-12-18T04:00:12;-5.65;96.53
68109;SHT30;54893;49.864;19.084;2022-12-18T04:05:14;-5.69;96.43
68109;SHT30;54893;49.864;19.084;2022-12-18T04:10:15;-5.72;95.45
68109;SHT30;54893;49.864;19.084;2022-12-18T04:15:16;-5.72;95.41
68109;SHT30;54893;49.864;19.084;2022-12-18T04:20:17;-5.71;95.75
68109;SHT30;54893;49.864;19.084;2022-12-18T04:25:17;-5.71;96.04
68109;SHT30;54893;49.864;19.084;2022-12-18T04:30:17;-5.71;95.98
68109;SHT30;54893;49.864;19.084;2022-12-18T04:35:18;-5.69;95.60
68109;SHT30;54893;49.864;19.084;2022-12-18T04:40:18;-5.72;95.54
68109;SHT30;54893;49.864;19.084;2022-12-18T04:45:18;-5.71;95.62
68109;SHT30;54893;49.864;19.084;2022-12-18T04:50:18;-5.72;95.99
68109;SHT30;54893;49.864;19.084;2022-12-18T04:55:19;-5.76;96.36
68109;SHT30;54893;49.864;19.084;2022-12-18T05:00:20;-5.75;96.27
68109;SHT30;54893;49.864;19.084;2022-12-18T05:05:20;-5.81;96.67
68109;SHT30;54893;49.864;19.084;2022-12-18T05:10:20;-5.81;96.51
68109;SHT30;54893;49.864;19.084;2022-12-18T05:15:21;-5.81;96.71
68109;SHT30;54893;49.864;19.084;2022-12-18T05:20:21;-5.82;96.15
68109;SHT30;54893;49.864;19.084;2022-12-18T05:25:22;-5.81;96.52
68109;SHT30;54893;49.864;19.084;2022-12-18T05:30:22;-5.85;95.14
68109;SHT30;54893;49.864;19.084;2022-12-18T05:35:23;-5.86;95.76
68109;SHT30;54893;49.864;19.084;2022-12-18T05:40:23;-5.85;94.75
68109;SHT30;54893;49.864;19.084;2022-12-18T05:45:23;-5.78;94.93
68109;SHT30;54893;49.864;19.084;2022-12-18T05:50:24;-5.78;95.66
68109;SHT30;54893;49.864;19.084;2022-12-18T05:55:24;-5.81;95.58
68109;SHT30;54893;49.864;19.084;2022-12-18T06:00:26;-5.81;94.99
68109;SHT30;54893;49.864;19.084;2022-12-18T06:05:26;-5.79;95.56
68109;SHT30;54893;49.864;19.084;2022-12-18T06:10:26;-5.78;95.67
68109;SHT30;54893;49.864;19.084;2022-12-18T06:15:27;-5.76;96.00
68109;SHT30;54893;49.864;19.084;2022-12-18T06:20:30;-5.83;95.87
68109;SHT30;54893;49.864;19.084;2022-12-18T06:25:30;-5.83;95.26
68109;SHT30;54893;49.864;19.084;2022-12-18T06:30:31;-5.87;95.01
68109;SHT30;54893;49.864;19.084;2022-12-18T06:35:31;-5.83;95.13
68109;SHT30;54893;49.864;19.084;2022-12-18T06:40:32;-5.81;94.88
68109;SHT30;54893;49.864;19.084;2022-12-18T06:45:32;-5.82;94.59
68109;SHT30;54893;49.864;19.084;2022-12-18T06:50:33;-5.79;94.75
68109;SHT30;54893;49.864;19.084;2022-12-18T06:55:33;-5.79;94.15
68109;SHT30;54893;49.864;19.084;2022-12-18T07:00:33;-5.72;93.90
68109;SHT30;54893;49.864;19.084;2022-12-18T07:05:34;-5.69;93.53
68109;SHT30;54893;49.864;19.084;2022-12-18T07:10:41;-5.81;93.26
68109;SHT30;54893;49.864;19.084;2022-12-18T07:15:42;-5.76;93.10
68109;SHT30;54893;49.864;19.084;2022-12-18T07:20:43;-5.68;93.91
68109;SHT30;54893;49.864;19.084;2022-12-18T07:25:44;-5.61;93.58
68109;SHT30;54893;49.864;19.084;2022-12-18T07:30:44;-5.38;93.31
68109;SHT30;54893;49.864;19.084;2022-12-18T07:35:44;-5.31;92.24
68109;SHT30;54893;49.864;19.084;2022-12-18T07:40:45;-5.04;91.65
68109;SHT30;54893;49.864;19.084;2022-12-18T07:45:45;-4.77;89.52
68109;SHT30;54893;49.864;19.084;2022-12-18T07:50:49;-4.36;88.84
68109;SHT30;54893;49.864;19.084;2022-12-18T07:55:55;-4.49;89.54
68109;SHT30;54893;49.864;19.084;2022-12-18T08:01:04;-4.73;87.79
68109;SHT30;54893;49.864;19.084;2022-12-18T08:06:07;-4.60;86.58
68109;SHT30;54893;49.864;19.084;2022-12-18T08:11:07;-4.66;86.06
68109;SHT30;54893;49.864;19.084;2022-12-18T08:16:08;-4.56;86.38
68109;SHT30;54893;49.864;19.084;2022-12-18T08:21:17;-4.30;86.62
68109;SHT30;54893;49.864;19.084;2022-12-18T08:26:18;-4.34;85.16
68109;SHT30;54893;49.864;19.084;2022-12-18T08:31:19;-4.63;85.21
68109;SHT30;54893;49.864;19.084;2022-12-18T08:36:20;-4.66;84.65
68109;SHT30;54893;49.864;19.084;2022-12-18T08:41:21;-4.79;84.98
68109;SHT30;54893;49.864;19.084;2022-12-18T08:46:23;-4.69;84.56
68109;SHT30;54893;49.864;19.084;2022-12-18T08:51:24;-4.60;84.01
68109;SHT30;54893;49.864;19.084;2022-12-18T08:56:24;-4.67;83.68
68109;SHT30;54893;49.864;19.084;2022-12-18T09:01:24;-4.88;84.21
68109;SHT30;54893;49.864;19.084;2022-12-18T09:06:25;-4.86;85.42
68109;SHT30;54893;49.864;19.084;2022-12-18T09:11:27;-4.72;84.97
68109;SHT30;54893;49.864;19.084;2022-12-18T09:16:29;-4.54;86.60
68109;SHT30;54893;49.864;19.084;2022-12-18T09:21:33;-4.60;84.42
68109;SHT30;54893;49.864;19.084;2022-12-18T09:26:34;-4.66;84.13
68109;SHT30;54893;49.864;19.084;2022-12-18T09:31:36;-4.77;84.00
68109;SHT30;54893;49.864;19.084;2022-12-18T09:36:37;-4.59;85.68
68109;SHT30;54893;49.864;19.084;2022-12-18T09:41:50;-4.73;84.21
68109;SHT30;54893;49.864;19.084;2022-12-18T09:52:03;-4.36;82.67
68109;SHT30;54893;49.864;19.084;2022-12-18T09:57:05;-4.25;83.03
68109;SHT30;54893;49.864;19.084;2022-12-18T10:02:31;-4.16;83.03
68109;SHT30;54893;49.864;19.084;2022-12-18T10:12:53;-4.13;82.76
68109;SHT30;54893;49.864;19.084;2022-12-18T10:18:11;-3.86;82.19
68109;SHT30;54893;49.864;19.084;2022-12-18T10:23:18;-3.60;81.41
68109;SHT30;54893;49.864;19.084;2022-12-18T10:28:23;-3.37;81.13
68109;SHT30;54893;49.864;19.084;2022-12-18T10:33:27;-3.17;81.63
68109;SHT30;54893;49.864;19.084;2022-12-18T10:38:31;-3.24;79.92
68109;SHT30;54893;49.864;19.084;2022-12-18T10:43:36;-2.89;84.92
68109;SHT30;54893;49.864;19.084;2022-12-18T10:53:51;-2.82;86.48
68109;SHT30;54893;49.864;19.084;2022-12-18T10:58:59;-2.75;85.87
68109;SHT30;54893;49.864;19.084;2022-12-18T11:04:02;-2.69;86.63
68109;SHT30;54893;49.864;19.084;2022-12-18T11:24:35;-2.27;80.28
68109;SHT30;54893;49.864;19.084;2022-12-18T11:29:37;-2.48;80.01
68109;SHT30;54893;49.864;19.084;2022-12-18T11:34:38;-2.38;79.33
68109;SHT30;54893;49.864;19.084;2022-12-18T11:39:43;-2.44;79.90
68109;SHT30;54893;49.864;19.084;2022-12-18T11:44:49;-2.34;79.92
68109;SHT30;54893;49.864;19.084;2022-12-18T11:49:51;-2.48;80.66
68109;SHT30;54893;49.864;19.084;2022-12-18T11:54:52;-2.99;81.89
68109;SHT30;54893;49.864;19.084;2022-12-18T12:21:40;-2.95;80.76
68109;SHT30;54893;49.864;19.084;2022-12-18T12:27:14;-2.82;81.47
68109;SHT30;54893;49.864;19.084;2022-12-18T12:32:37;-3.13;81.55
68109;SHT30;54893;49.864;19.084;2022-12-18T12:42:56;-3.36;81.92
68109;SHT30;54893;49.864;19.084;2022-12-18T12:48:19;-3.52;82.29
68109;SHT30;54893;49.864;19.084;2022-12-18T12:53:29;-3.81;83.21
68109;SHT30;54893;49.864;19.084;2022-12-18T13:09:33;-4.33;85.44
68109;SHT30;54893;49.864;19.084;2022-12-18T13:14:35;-4.45;85.88
68109;SHT30;54893;49.864;19.084;2022-12-18T13:19:36;-4.56;86.34
68109;SHT30;54893;49.864;19.084;2022-12-18T13:24:36;-4.73;86.69
68109;SHT30;54893;49.864;19.084;2022-12-18T13:29:43;-4.93;87.51
68109;SHT30;54893;49.864;19.084;2022-12-18T13:34:43;-5.03;88.63
68109;SHT30;54893;49.864;19.084;2022-12-18T13:39:44;-5.20;88.88
68109;SHT30;54893;49.864;19.084;2022-12-18T13:44:44;-5.38;89.45
68109;SHT30;54893;49.864;19.084;2022-12-18T13:49:46;-5.58;90.10
68109;SHT30;54893;49.864;19.084;2022-12-18T13:54:54;-5.83;90.97
68109;SHT30;54893;49.864;19.084;2022-12-18T13:59:56;-6.06;91.80
68109;SHT30;54893;49.864;19.084;2022-12-18T14:04:56;-6.34;92.50
68109;SHT30;54893;49.864;19.084;2022-12-18T14:09:59;-6.51;93.54
68109;SHT30;54893;49.864;19.084;2022-12-18T14:15:01;-6.74;94.25
68109;SHT30;54893;49.864;19.084;2022-12-18T14:20:02;-6.95;95.48
68109;SHT30;54893;49.864;19.084;2022-12-18T14:30:31;-7.33;95.68
68109;SHT30;54893;49.864;19.084;2022-12-18T14:35:35;-7.52;96.24
68109;SHT30;54893;49.864;19.084;2022-12-18T14:40:37;-7.82;96.95
68109;SHT30;54893;49.864;19.084;2022-12-18T14:45:42;-7.96;97.19
68109;SHT30;54893;49.864;19.084;2022-12-18T14:50:43;-8.20;97.26
68109;SHT30;54893;49.864;19.084;2022-12-18T14:55:46;-8.38;97.65
68109;SHT30;54893;49.864;19.084;2022-12-18T15:00:47;-8.54;98.00
68109;SHT30;54893;49.864;19.084;2022-12-18T15:05:48;-8.52;98.76
68109;SHT30;54893;49.864;19.084;2022-12-18T15:10:48;-8.75;98.65
68109;SHT30;54893;49.864;19.084;2022-12-18T15:15:49;-8.73;97.70
68109;SHT30;54893;49.864;19.084;2022-12-18T15:20:55;-8.64;98.57
68109;SHT30;54893;49.864;19.084;2022-12-18T15:25:58;-8.91;97.34
68109;SHT30;54893;49.864;19.084;2022-12-18T15:36:02;-8.58;96.39
68109;SHT30;54893;49.864;19.084;2022-12-18T15:41:03;-8.58;96.33
68109;SHT30;54893;49.864;19.084;2022-12-18T15:46:05;-8.40;96.27
68109;SHT30;54893;49.864;19.084;2022-12-18T15:51:13;-9.12;96.58
68109;SHT30;54893;49.864;19.084;2022-12-18T15:56:15;-9.37;97.40
68109;SHT30;54893;49.864;19.084;2022-12-18T16:01:34;-9.42;98.84
68109;SHT30;54893;49.864;19.084;2022-12-18T16:06:34;-9.10;97.33
68109;SHT30;54893;49.864;19.084;2022-12-18T16:11:36;-9.00;97.12
68109;SHT30;54893;49.864;19.084;2022-12-18T16:16:37;-9.16;96.81
68109;SHT30;54893;49.864;19.084;2022-12-18T16:21:38;-9.74;96.70
68109;SHT30;54893;49.864;19.084;2022-12-18T16:26:38;-10.28;97.05
68109;SHT30;54893;49.864;19.084;2022-12-18T16:31:39;-10.59;97.67
68109;SHT30;54893;49.864;19.084;2022-12-18T16:36:39;-10.72;97.87
68109;SHT30;54893;49.864;19.084;2022-12-18T16:41:40;-10.45;98.67
68109;SHT30;54893;49.864;19.084;2022-12-18T16:46:40;-10.70;98.13
68109;SHT30;54893;49.864;19.084;2022-12-18T16:51:45;-11.07;98.40
68109;SHT30;54893;49.864;19.084;2022-12-18T16:56:46;-10.93;98.35
68109;SHT30;54893;49.864;19.084;2022-12-18T17:01:48;-10.83;98.25
68109;SHT30;54893;49.864;19.084;2022-12-18T17:06:49;-10.83;97.92
68109;SHT30;54893;49.864;19.084;2022-12-18T17:11:52;-10.77;98.12
68109;SHT30;54893;49.864;19.084;2022-12-18T17:16:54;-11.02;98.09
68109;SHT30;54893;49.864;19.084;2022-12-18T17:21:54;-11.13;98.76
68109;SHT30;54893;49.864;19.084;2022-12-18T17:26:55;-11.16;98.27
68109;SHT30;54893;49.864;19.084;2022-12-18T17:31:55;-11.52;97.76
68109;SHT30;54893;49.864;19.084;2022-12-18T17:36:56;-11.37;98.29
68109;SHT30;54893;49.864;19.084;2022-12-18T17:41:56;-11.07;98.51
68109;SHT30;54893;49.864;19.084;2022-12-18T17:46:56;-11.06;98.17
68109;SHT30;54893;49.864;19.084;2022-12-18T17:51:57;-11.33;97.82
68109;SHT30;54893;49.864;19.084;2022-12-18T17:56:57;-11.07;98.51
68109;SHT30;54893;49.864;19.084;2022-12-18T18:01:57;-10.25;96.86
68109;SHT30;54893;49.864;19.084;2022-12-18T18:06:58;-10.46;97.03
68109;SHT30;54893;49.864;19.084;2022-12-18T18:11:58;-10.66;97.14
68109;SHT30;54893;49.864;19.084;2022-12-18T18:17:17;-11.02;97.62
68109;SHT30;54893;49.864;19.084;2022-12-18T18:22:17;-10.76;97.59
68109;SHT30;54893;49.864;19.084;2022-12-18T18:27:19;-11.02;97.77
68109;SHT30;54893;49.864;19.084;2022-12-18T18:32:19;-10.90;98.60
68109;SHT30;54893;49.864;19.084;2022-12-18T18:37:19;-11.58;96.83
68109;SHT30;54893;49.864;19.084;2022-12-18T18:42:20;-11.81;97.13
68109;SHT30;54893;49.864;19.084;2022-12-18T18:47:20;-10.73;97.18
68109;SHT30;54893;49.864;19.084;2022-12-18T18:52:20;-9.93;93.88
68109;SHT30;54893;49.864;19.084;2022-12-18T18:57:21;-10.22;95.01
68109;SHT30;54893;49.864;19.084;2022-12-18T19:02:21;-10.82;95.79
68109;SHT30;54893;49.864;19.084;2022-12-18T19:07:21;-11.10;95.70
68109;SHT30;54893;49.864;19.084;2022-12-18T19:12:22;-11.44;96.24
68109;SHT30;54893;49.864;19.084;2022-12-18T19:17:40;-11.55;96.34
68109;SHT30;54893;49.864;19.084;2022-12-18T19:22:41;-11.71;96.75
68109;SHT30;54893;49.864;19.084;2022-12-18T19:27:41;-11.79;97.19
68109;SHT30;54893;49.864;19.084;2022-12-18T19:32:42;-12.09;97.02
68109;SHT30;54893;49.864;19.084;2022-12-18T19:37:42;-12.33;96.73
68109;SHT30;54893;49.864;19.084;2022-12-18T19:42:42;-12.37;97.18
68109;SHT30;54893;49.864;19.084;2022-12-18T19:47:43;-12.53;97.28
68109;SHT30;54893;49.864;19.084;2022-12-18T19:52:43;-12.42;97.63
68109;SHT30;54893;49.864;19.084;2022-12-18T19:57:43;-11.95;97.51
68109;SHT30;54893;49.864;19.084;2022-12-18T20:02:44;-11.58;97.70
68109;SHT30;54893;49.864;19.084;2022-12-18T20:07:44;-12.03;96.62
68109;SHT30;54893;49.864;19.084;2022-12-18T20:12:44;-12.76;96.10
68109;SHT30;54893;49.864;19.084;2022-12-18T20:17:45;-12.87;97.82
68109;SHT30;54893;49.864;19.084;2022-12-18T20:22:45;-12.50;97.76
68109;SHT30;54893;49.864;19.084;2022-12-18T20:27:45;-12.52;97.44
68109;SHT30;54893;49.864;19.084;2022-12-18T20:32:46;-12.15;97.47
68109;SHT30;54893;49.864;19.084;2022-12-18T20:37:46;-12.33;96.79
68109;SHT30;54893;49.864;19.084;2022-12-18T20:42:48;-12.64;96.50
68109;SHT30;54893;49.864;19.084;2022-12-18T20:47:48;-12.52;97.31
68109;SHT30;54893;49.864;19.084;2022-12-18T20:52:48;-12.30;96.94
68109;SHT30;54893;49.864;19.084;2022-12-18T20:57:49;-11.99;97.13
68109;SHT30;54893;49.864;19.084;2022-12-18T21:02:51;-11.77;97.84
68109;SHT30;54893;49.864;19.084;2022-12-18T21:07:52;-11.69;97.24
68109;SHT30;54893;49.864;19.084;2022-12-18T21:12:52;-11.64;97.66
68109;SHT30;54893;49.864;19.084;2022-12-18T21:17:52;-11.55;98.95
68109;SHT30;54893;49.864;19.084;2022-12-18T21:22:53;-11.55;97.29
68109;SHT30;54893;49.864;19.084;2022-12-18T21:27:53;-11.67;97.20
68109;SHT30;54893;49.864;19.084;2022-12-18T21:32:54;-11.79;97.40
68109;SHT30;54893;49.864;19.084;2022-12-18T21:37:55;-11.52;97.26
68109;SHT30;54893;49.864;19.084;2022-12-18T21:42:55;-11.24;96.82
68109;SHT30;54893;49.864;19.084;2022-12-18T21:48:14;-11.88;96.40
68109;SHT30;54893;49.864;19.084;2022-12-18T21:53:14;-12.46;96.03
68109;SHT30;54893;49.864;19.084;2022-12-18T21:58:15;-12.64;96.34
68109;SHT30;54893;49.864;19.084;2022-12-18T22:03:15;-12.25;96.76
68109;SHT30;54893;49.864;19.084;2022-12-18T22:08:17;-11.59;96.25
68109;SHT30;54893;49.864;19.084;2022-12-18T22:13:17;-11.78;95.71
68109;SHT30;54893;49.864;19.084;2022-12-18T22:18:17;-12.56;95.00
68109;SHT30;54893;49.864;19.084;2022-12-18T22:23:20;-13.15;95.13
68109;SHT30;54893;49.864;19.084;2022-12-18T22:28:20;-13.31;95.70
68109;SHT30;54893;49.864;19.084;2022-12-18T22:33:39;-13.28;95.81
68109;SHT30;54893;49.864;19.084;2022-12-18T22:38:39;-13.34;95.91
68109;SHT30;54893;49.864;19.084;2022-12-18T22:43:40;-13.12;96.90
68109;SHT30;54893;49.864;19.084;2022-12-18T22:48:40;-12.69;97.42
68109;SHT30;54893;49.864;19.084;2022-12-18T22:53:41;-12.35;98.03
68109;SHT30;54893;49.864;19.084;2022-12-18T22:58:42;-12.16;97.10
68109;SHT30;54893;49.864;19.084;2022-12-18T23:03:43;-12.03;96.94
68109;SHT30;54893;49.864;19.084;2022-12-18T23:08:43;-12.06;97.88
68109;SHT30;54893;49.864;19.084;2022-12-18T23:13:44;-11.99;96.89
68109;SHT30;54893;49.864;19.084;2022-12-18T23:18:45;-11.91;97.15
68109;SHT30;54893;49.864;19.084;2022-12-18T23:23:45;-11.69;97.61
68109;SHT30;54893;49.864;19.084;2022-12-18T23:28:46;-11.41;98.31
68109;SHT30;54893;49.864;19.084;2022-12-18T23:33:47;-11.48;97.30
68109;SHT30;54893;49.864;19.084;2022-12-18T23:38:52;-11.74;96.98
68109;SHT30;54893;49.864;19.084;2022-12-18T23:43:53;-11.68;97.04
68109;SHT30;54893;49.864;19.084;2022-12-18T23:48:53;-11.59;96.96
68109;SHT30;54893;49.864;19.084;2022-12-18T23:53:57;-12.13;95.93
68109;SHT30;54893;49.864;19.084;2022-12-18T23:58:57;-12.30;96.43
